createdAt,value
2018-01-27T00:01:32.345Z,19.12
2018-01-27T00:03:59.816Z,21.15
2018-01-27T00:06:27.291Z,18.95
2018-01-27T00:08:54.743Z,20.40
2018-01-27T00:11:22.207Z,19.65
2018-01-27T00:13:51.187Z,20.25
2018-01-27T00:16:18.714Z,19.30
2018-01-27T00:18:46.176Z,19.80
2018-01-27T00:21:13.641Z,20.45
2018-01-27T00:23:41.146Z,19.87
2018-01-27T00:26:08.680Z,19.35
2018-01-27T00:28:36.143Z,19.30
2018-01-27T00:31:03.705Z,18.00
2018-01-27T00:33:31.173Z,20.88
2018-01-27T00:35:58.641Z,20.50
2018-01-27T00:38:26.889Z,18.48
2018-01-27T00:40:54.346Z,20.92
2018-01-27T00:43:21.909Z,18.80
2018-01-27T00:45:49.377Z,19.02
2018-01-27T00:48:16.840Z,21.27
2018-01-27T00:50:45.067Z,20.37
2018-01-27T00:53:12.541Z,20.95
2018-01-27T00:55:39.999Z,20.12
2018-01-27T00:58:07.459Z,19.98
2018-01-27T01:00:34.928Z,23.05
2018-01-27T01:03:02.401Z,18.58
2018-01-27T01:05:30.711Z,19.00
2018-01-27T01:07:58.173Z,20.75
2018-01-27T01:10:25.725Z,19.00
2018-01-27T01:12:53.237Z,21.02
2018-01-27T01:15:20.650Z,20.05
2018-01-27T01:17:48.113Z,19.30
2018-01-27T01:20:15.587Z,20.75
2018-01-27T01:22:43.144Z,23.12
2018-01-27T01:25:10.617Z,19.15
2018-01-27T01:27:38.177Z,20.37
2018-01-27T01:30:05.732Z,21.83
2018-01-27T01:32:33.184Z,21.30
2018-01-27T01:35:00.955Z,21.15
2018-01-27T01:37:28.441Z,18.20
2018-01-27T01:39:56.668Z,22.05
2018-01-27T01:42:29.761Z,21.02
2018-01-27T01:44:57.221Z,18.67
2018-01-27T01:47:26.187Z,20.80
2018-01-27T01:49:53.644Z,21.37
2018-01-27T01:52:21.128Z,20.00
2018-01-27T01:54:48.679Z,21.37
2018-01-27T01:57:16.245Z,20.17
2018-01-27T01:59:43.700Z,21.55
2018-01-27T02:02:11.260Z,21.02
2018-01-27T02:04:38.824Z,20.10
2018-01-27T02:07:06.379Z,20.80
2018-01-27T02:09:33.935Z,20.42
2018-01-27T02:12:01.396Z,20.60
2018-01-27T02:14:28.856Z,20.50
2018-01-27T02:16:56.408Z,20.88
2018-01-27T02:19:23.868Z,21.20
2018-01-27T02:21:51.524Z,20.80
2018-01-27T02:24:18.988Z,21.12
2018-01-27T02:26:46.544Z,20.95
2018-01-27T02:29:14.106Z,21.70
2018-01-27T02:31:41.720Z,20.45
2018-01-27T02:34:09.176Z,21.45
2018-01-27T02:36:36.671Z,21.85
2018-01-27T02:39:04.273Z,23.02
2018-01-27T02:41:32.530Z,19.58
2018-01-27T02:44:00.797Z,18.58
2018-01-27T02:46:28.344Z,21.98
2018-01-27T02:48:55.817Z,23.90
2018-01-27T02:51:23.368Z,20.35
2018-01-27T02:53:50.878Z,22.20
2018-01-27T02:56:18.323Z,21.27
2018-01-27T02:58:45.780Z,21.08
2018-01-27T03:01:13.280Z,23.10
2018-01-27T03:03:40.740Z,20.75
2018-01-27T03:06:08.352Z,21.05
2018-01-27T03:08:36.579Z,20.50
2018-01-27T03:11:04.132Z,19.48
2018-01-27T03:13:31.592Z,21.73
2018-01-27T03:15:59.826Z,21.12
2018-01-27T03:18:27.320Z,18.92
2018-01-27T03:20:54.945Z,19.83
2018-01-27T03:23:22.442Z,21.15
2018-01-27T03:25:49.908Z,20.45
2018-01-27T03:28:17.369Z,20.73
2018-01-27T03:30:44.839Z,21.95
2018-01-27T03:33:13.075Z,19.87
2018-01-27T03:35:40.520Z,20.52
2018-01-27T03:38:07.975Z,21.48
2018-01-27T03:40:35.444Z,21.83
2018-01-27T03:43:02.907Z,23.02
2018-01-27T03:45:30.363Z,21.40
2018-01-27T03:47:57.887Z,19.75
2018-01-27T03:50:25.392Z,21.45
2018-01-27T03:52:52.943Z,20.92
2018-01-27T03:55:20.503Z,22.50
2018-01-27T03:57:48.064Z,22.27
2018-01-27T04:00:15.520Z,21.42
2018-01-27T04:02:42.983Z,20.75
2018-01-27T04:05:10.532Z,21.92
2018-01-27T04:07:38.092Z,20.33
2018-01-27T04:10:05.548Z,19.58
2018-01-27T04:12:33.108Z,19.27
2018-01-27T04:15:00.625Z,21.10
2018-01-27T04:17:28.123Z,21.75
2018-01-27T04:19:55.591Z,23.60
2018-01-27T04:22:23.140Z,20.35
2018-01-27T04:24:50.691Z,21.37
2018-01-27T04:27:18.156Z,22.20
2018-01-27T04:29:45.624Z,22.23
2018-01-27T04:32:13.166Z,22.98
2018-01-27T04:34:40.628Z,22.25
2018-01-27T04:37:08.095Z,22.15
2018-01-27T04:39:35.556Z,23.45
2018-01-27T04:42:03.783Z,22.15
2018-01-27T04:44:31.267Z,23.90
2018-01-27T04:46:58.823Z,21.65
2018-01-27T04:49:26.392Z,22.80
2018-01-27T04:51:53.844Z,22.48
2018-01-27T04:54:21.303Z,22.98
2018-01-27T04:56:48.818Z,22.58
2018-01-27T04:59:16.264Z,23.70
2018-01-27T05:01:43.736Z,23.95
2018-01-27T05:04:11.227Z,21.60
2018-01-27T05:06:38.784Z,23.12
2018-01-27T05:09:06.349Z,22.58
2018-01-27T05:11:33.808Z,22.15
2018-01-27T05:14:01.269Z,21.90
2018-01-27T05:16:28.819Z,22.20
2018-01-27T05:18:56.279Z,20.55
2018-01-27T05:21:23.740Z,20.73
2018-01-27T05:23:51.241Z,22.67
2018-01-27T05:26:18.698Z,22.40
2018-01-27T05:28:46.152Z,19.95
2018-01-27T05:31:13.613Z,21.12
2018-01-27T05:33:41.178Z,20.77
2018-01-27T05:36:08.716Z,22.62
2018-01-27T05:38:36.236Z,19.50
2018-01-27T05:41:03.751Z,22.33
2018-01-27T05:43:31.206Z,23.02
2018-01-27T05:45:58.712Z,20.70
2018-01-27T05:48:26.256Z,22.37
2018-01-27T05:50:53.716Z,19.98
2018-01-27T05:53:21.179Z,20.35
2018-01-27T05:55:48.704Z,20.30
2018-01-27T05:58:16.166Z,20.67
2018-01-27T06:00:43.651Z,21.73
2018-01-27T06:03:11.221Z,22.15
2018-01-27T06:05:38.767Z,20.65
2018-01-27T06:08:06.331Z,19.75
2018-01-27T06:10:33.788Z,20.73
2018-01-27T06:13:01.252Z,21.05
2018-01-27T06:15:28.711Z,21.05
2018-01-27T06:17:56.937Z,22.55
2018-01-27T06:20:24.400Z,22.30
2018-01-27T06:22:51.852Z,22.40
2018-01-27T06:25:19.340Z,24.23
2018-01-27T06:27:46.900Z,24.17
2018-01-27T06:30:14.416Z,21.02
2018-01-27T06:32:41.869Z,21.42
2018-01-27T06:35:09.347Z,22.58
2018-01-27T06:37:36.809Z,22.80
2018-01-27T06:40:04.308Z,21.87
2018-01-27T06:42:32.532Z,22.42
2018-01-27T06:45:00.023Z,19.48
2018-01-27T06:47:27.488Z,21.30
2018-01-27T06:49:54.975Z,19.27
2018-01-27T06:52:22.547Z,23.83
2018-01-27T06:54:50.041Z,19.75
2018-01-27T06:57:17.544Z,21.17
2018-01-27T06:59:45.005Z,21.37
2018-01-27T07:02:12.469Z,20.50
2018-01-27T07:04:39.919Z,18.65
2018-01-27T07:07:07.432Z,18.65
2018-01-27T07:09:34.991Z,18.92
2018-01-27T07:12:02.450Z,19.48
2018-01-27T07:14:30.004Z,19.67
2018-01-27T07:16:57.484Z,18.37
2018-01-27T07:19:25.845Z,19.30
2018-01-27T07:21:53.307Z,18.60
2018-01-27T07:24:20.771Z,16.15
2018-01-27T07:26:49.129Z,15.38
2018-01-27T07:29:16.688Z,16.42
2018-01-27T07:31:45.652Z,16.48
2018-01-27T07:34:13.171Z,17.20
2018-01-27T07:36:40.600Z,16.30
2018-01-27T07:39:08.058Z,15.43
2018-01-27T07:41:35.522Z,16.33
2018-01-27T07:44:02.991Z,14.73
2018-01-27T07:46:31.300Z,17.00
2018-01-27T07:48:58.771Z,17.27
2018-01-27T07:51:26.368Z,16.42
2018-01-27T07:53:53.918Z,17.42
2018-01-27T07:56:21.371Z,15.38
2018-01-27T07:58:48.827Z,14.82
2018-01-27T08:01:16.345Z,12.90
2018-01-27T08:03:43.828Z,13.75
2018-01-27T08:06:11.288Z,13.60
2018-01-27T08:08:38.751Z,12.95
2018-01-27T08:11:06.250Z,12.65
2018-01-27T08:13:33.835Z,14.10
2018-01-27T08:16:01.292Z,14.30
2018-01-27T08:18:28.755Z,13.13
2018-01-27T08:20:56.213Z,13.38
2018-01-27T08:23:23.700Z,12.32
2018-01-27T08:25:51.936Z,13.32
2018-01-27T08:28:19.427Z,13.27
2018-01-27T08:30:46.987Z,12.50
2018-01-27T08:33:14.447Z,14.10
2018-01-27T08:35:42.004Z,12.68
2018-01-27T08:38:09.584Z,11.98
2018-01-27T08:40:37.119Z,12.13
2018-01-27T08:43:06.120Z,12.90
2018-01-27T08:45:33.580Z,12.60
2018-01-27T08:48:01.052Z,13.65
2018-01-27T08:50:29.280Z,12.70
2018-01-27T08:52:56.763Z,12.57
2018-01-27T08:55:24.224Z,11.57
2018-01-27T08:57:53.064Z,12.13
2018-01-27T09:00:20.571Z,12.80
2018-01-27T09:02:48.053Z,11.10
2018-01-27T09:05:16.272Z,11.65
2018-01-27T09:07:43.740Z,11.45
2018-01-27T09:10:11.209Z,12.75
2018-01-27T09:12:38.773Z,12.50
2018-01-27T09:15:06.340Z,10.90
2018-01-27T09:17:33.796Z,13.60
2018-01-27T09:20:01.260Z,11.93
2018-01-27T09:22:28.800Z,12.65
2018-01-27T09:24:56.260Z,12.15
2018-01-27T09:27:23.869Z,11.88
2018-01-27T09:29:51.288Z,13.20
2018-01-27T09:32:19.520Z,10.88
2018-01-27T09:34:46.988Z,12.77
2018-01-27T09:37:14.603Z,11.30
2018-01-27T09:39:42.830Z,12.70
2018-01-27T09:42:10.288Z,11.38
2018-01-27T09:44:37.747Z,11.50
2018-01-27T09:47:05.209Z,10.65
2018-01-27T09:49:33.470Z,10.10
2018-01-27T09:52:00.926Z,10.13
2018-01-27T09:54:28.436Z,10.00
2018-01-27T09:56:55.883Z,9.27
2018-01-27T09:59:24.107Z,9.73
2018-01-27T10:01:51.568Z,9.30
2018-01-27T10:04:19.021Z,8.82
2018-01-27T10:06:46.488Z,8.60
2018-01-27T10:09:13.956Z,9.70
2018-01-27T10:11:41.526Z,12.23
2018-01-27T10:14:09.076Z,10.05
2018-01-27T10:16:36.544Z,11.20
2018-01-27T10:19:04.090Z,10.60
2018-01-27T10:21:31.547Z,9.48
2018-01-27T10:23:59.884Z,8.85
2018-01-27T10:26:27.348Z,10.32
2018-01-27T10:28:54.849Z,9.48
2018-01-27T10:31:22.391Z,9.40
2018-01-27T10:33:49.864Z,9.85
2018-01-27T10:36:17.325Z,11.38
2018-01-27T10:38:45.582Z,11.18
2018-01-27T10:41:13.036Z,10.43
2018-01-27T10:43:40.504Z,9.38
2018-01-27T10:46:07.957Z,10.82
2018-01-27T10:48:36.208Z,10.88
2018-01-27T10:51:03.665Z,11.00
2018-01-27T10:53:31.148Z,12.35
2018-01-27T10:55:58.616Z,11.50
2018-01-27T10:58:26.849Z,10.70
2018-01-27T11:00:54.305Z,9.55
2018-01-27T11:03:21.813Z,11.60
2018-01-27T11:05:49.249Z,10.15
2018-01-27T11:08:16.728Z,10.90
2018-01-27T11:10:44.971Z,10.27
2018-01-27T11:13:12.428Z,12.27
2018-01-27T11:15:39.903Z,12.48
2018-01-27T11:18:07.359Z,11.93
2018-01-27T11:20:34.819Z,11.55
2018-01-27T11:23:03.048Z,10.93
2018-01-27T11:25:30.511Z,11.02
2018-01-27T11:27:57.980Z,10.77
2018-01-27T11:30:25.553Z,11.60
2018-01-27T11:32:53.014Z,10.88
2018-01-27T11:35:20.548Z,11.07
2018-01-27T11:37:48.683Z,10.95
2018-01-27T11:40:16.145Z,12.45
2018-01-27T11:42:43.626Z,11.75
2018-01-27T11:45:11.093Z,13.00
2018-01-27T11:47:38.564Z,10.85
2018-01-27T11:50:06.035Z,11.85
2018-01-27T11:52:33.581Z,11.60
2018-01-27T11:55:01.807Z,11.80
2018-01-27T11:57:29.312Z,12.57
2018-01-27T11:59:56.907Z,11.88
2018-01-27T12:02:24.450Z,12.00
2018-01-27T12:04:51.910Z,12.13
2018-01-27T12:07:20.259Z,11.50
2018-01-27T12:09:47.708Z,11.02
2018-01-27T12:12:15.200Z,12.20
2018-01-27T12:14:43.473Z,11.25
2018-01-27T12:17:11.698Z,12.85
2018-01-27T12:19:39.183Z,11.57
2018-01-27T12:22:06.732Z,12.05
2018-01-27T12:24:34.296Z,11.82
2018-01-27T12:27:01.779Z,12.10
2018-01-27T12:29:30.006Z,12.10
2018-01-27T12:31:57.469Z,10.45
2018-01-27T12:34:24.923Z,12.30
2018-01-27T12:36:52.393Z,11.63
2018-01-27T12:39:19.858Z,11.43
2018-01-27T12:41:47.312Z,12.25
2018-01-27T12:44:14.782Z,12.60
2018-01-27T12:46:42.332Z,13.35
2018-01-27T12:49:09.900Z,13.80
2018-01-27T12:51:37.355Z,9.75
2018-01-27T12:54:04.821Z,9.95
2018-01-27T12:56:33.081Z,10.57
2018-01-27T12:59:00.642Z,10.60
2018-01-27T13:01:28.113Z,11.20
2018-01-27T13:03:56.344Z,10.30
2018-01-27T13:06:23.823Z,10.63
2018-01-27T13:08:51.384Z,11.33
2018-01-27T13:11:18.852Z,9.23
2018-01-27T13:13:46.318Z,9.83
2018-01-27T13:16:14.574Z,9.10
2018-01-27T13:18:42.032Z,8.70
2018-01-27T13:21:09.495Z,9.33
2018-01-27T13:23:37.048Z,10.23
2018-01-27T13:26:04.602Z,9.70
2018-01-27T13:28:32.180Z,9.97
2018-01-27T13:31:00.405Z,8.47
2018-01-27T13:33:27.891Z,9.00
2018-01-27T13:35:55.452Z,9.15
2018-01-27T13:38:22.907Z,8.13
2018-01-27T13:40:50.403Z,8.40
2018-01-27T13:43:17.883Z,8.05
2018-01-27T13:45:45.332Z,8.50
2018-01-27T13:48:12.788Z,8.45
2018-01-27T13:50:40.350Z,7.93
2018-01-27T13:53:07.857Z,7.20
2018-01-27T13:55:35.314Z,7.75
2018-01-27T13:58:02.768Z,8.27
2018-01-27T14:00:30.278Z,8.45
2018-01-27T14:02:57.771Z,9.40
2018-01-27T14:05:25.340Z,8.88
2018-01-27T14:07:52.792Z,9.23
2018-01-27T14:10:20.411Z,7.93
2018-01-27T14:12:47.970Z,9.07
2018-01-27T14:15:15.467Z,8.60
2018-01-27T14:17:43.040Z,7.43
2018-01-27T14:20:12.012Z,8.63
2018-01-27T14:22:39.464Z,8.52
2018-01-27T14:25:07.040Z,9.40
2018-01-27T14:27:34.492Z,9.18
2018-01-27T14:30:02.011Z,9.70
2018-01-27T14:32:29.726Z,7.75
2018-01-27T14:34:57.972Z,9.80
2018-01-27T14:37:25.429Z,10.57
2018-01-27T14:39:52.893Z,10.52
2018-01-27T14:42:20.352Z,8.95
2018-01-27T14:44:47.916Z,11.45
2018-01-27T14:47:15.400Z,10.02
2018-01-27T14:49:43.644Z,11.02
2018-01-27T14:52:12.622Z,11.50
2018-01-27T14:54:40.076Z,11.32
2018-01-27T14:57:07.541Z,11.10
2018-01-27T14:59:35.004Z,10.45
2018-01-27T15:02:02.578Z,10.57
2018-01-27T15:04:30.039Z,12.40
2018-01-27T15:06:57.505Z,10.23
2018-01-27T15:09:25.727Z,11.30
2018-01-27T15:11:53.194Z,10.70
2018-01-27T15:14:20.644Z,9.82
2018-01-27T15:16:48.113Z,12.02
2018-01-27T15:19:15.644Z,11.50
2018-01-27T15:21:43.146Z,11.80
2018-01-27T15:24:10.605Z,12.85
2018-01-27T15:26:38.469Z,10.70
2018-01-27T15:29:07.453Z,11.85
2018-01-27T15:31:34.919Z,13.38
2018-01-27T15:34:02.384Z,11.88
2018-01-27T15:36:29.846Z,11.02
2018-01-27T15:38:58.081Z,12.60
2018-01-27T15:41:25.560Z,11.20
2018-01-27T15:43:53.033Z,12.10
2018-01-27T15:46:20.576Z,13.57
2018-01-27T15:48:48.049Z,12.35
2018-01-27T15:51:16.275Z,11.65
2018-01-27T15:53:43.759Z,12.55
2018-01-27T15:56:12.047Z,14.77
2018-01-27T15:58:39.503Z,12.57
2018-01-27T16:01:06.965Z,11.30
2018-01-27T16:03:34.435Z,12.23
2018-01-27T16:06:01.922Z,11.27
2018-01-27T16:08:29.418Z,11.77
2018-01-27T16:10:56.881Z,13.07
2018-01-27T16:13:24.441Z,13.15
2018-01-27T16:15:51.924Z,13.88
2018-01-27T16:18:20.145Z,12.82
2018-01-27T16:20:47.716Z,14.30
2018-01-27T16:23:15.192Z,12.88
2018-01-27T16:25:42.659Z,11.85
2018-01-27T16:28:10.887Z,13.18
2018-01-27T16:30:38.359Z,12.95
2018-01-27T16:33:05.819Z,13.35
2018-01-27T16:35:33.383Z,12.05
2018-01-27T16:38:02.368Z,14.10
2018-01-27T16:40:29.914Z,12.75
2018-01-27T16:42:57.505Z,13.02
2018-01-27T16:45:24.991Z,13.15
2018-01-27T16:47:53.223Z,14.13
2018-01-27T16:50:20.683Z,14.43
2018-01-27T16:52:48.296Z,12.52
2018-01-27T16:55:15.808Z,14.43
2018-01-27T16:57:43.276Z,15.80
2018-01-27T17:00:10.825Z,13.68
2018-01-27T17:02:38.375Z,13.50
2018-01-27T17:05:05.935Z,15.60
2018-01-27T17:07:33.533Z,14.60
2018-01-27T17:10:00.968Z,15.80
2018-01-27T17:12:28.437Z,14.32
2018-01-27T17:14:56.873Z,14.68
2018-01-27T17:17:24.349Z,16.58
2018-01-27T17:19:51.805Z,12.85
2018-01-27T17:22:19.368Z,15.32
2018-01-27T17:24:46.828Z,14.93
2018-01-27T17:27:14.380Z,14.43
2018-01-27T17:29:41.849Z,16.12
2018-01-27T17:32:09.363Z,15.23
2018-01-27T17:34:36.824Z,14.18
2018-01-27T17:37:04.390Z,15.07
2018-01-27T17:39:31.949Z,13.70
2018-01-27T17:41:59.425Z,15.00
2018-01-27T17:44:26.962Z,15.07
2018-01-27T17:46:54.448Z,14.80
2018-01-27T17:49:22.655Z,16.40
2018-01-27T17:51:50.136Z,15.63
2018-01-27T17:54:17.612Z,13.62
2018-01-27T17:56:45.122Z,13.55
2018-01-27T17:59:13.396Z,13.15
2018-01-27T18:01:41.617Z,15.02
2018-01-27T18:04:09.071Z,15.45
2018-01-27T18:06:36.557Z,14.95
2018-01-27T18:09:04.043Z,15.43
2018-01-27T18:11:32.272Z,15.75
2018-01-27T18:13:59.785Z,16.83
2018-01-27T18:16:27.249Z,16.65
2018-01-27T18:18:54.726Z,16.58
2018-01-27T18:21:22.201Z,16.37
2018-01-27T18:23:49.758Z,16.62
2018-01-27T18:26:17.211Z,16.67
2018-01-27T18:28:44.700Z,20.05
2018-01-27T18:31:12.952Z,18.20
2018-01-27T18:33:40.574Z,18.10
2018-01-27T18:36:08.148Z,19.58
2018-01-27T18:38:35.615Z,18.37
2018-01-27T18:41:03.075Z,17.77
2018-01-27T18:43:30.540Z,18.20
2018-01-27T18:45:58.060Z,18.20
2018-01-27T18:48:25.554Z,17.62
2018-01-27T18:50:53.166Z,16.90
2018-01-27T18:53:20.675Z,19.50
2018-01-27T18:55:48.132Z,18.17
2018-01-27T18:58:15.623Z,17.62
2018-01-27T19:00:43.856Z,19.30
2018-01-27T19:03:11.339Z,20.10
2018-01-27T19:05:38.935Z,21.33
2018-01-27T19:08:06.445Z,18.40
2018-01-27T19:10:33.908Z,20.35
2018-01-27T19:13:01.456Z,19.10
2018-01-27T19:15:29.029Z,23.00
2018-01-27T19:17:56.505Z,19.87
2018-01-27T19:20:24.810Z,20.85
2018-01-27T19:22:52.268Z,18.12
2018-01-27T19:25:19.821Z,20.60
2018-01-27T19:27:47.332Z,19.77
2018-01-27T19:30:14.798Z,19.40
2018-01-27T19:32:43.028Z,19.35
2018-01-27T19:35:10.504Z,19.23
2018-01-27T19:37:37.978Z,19.27
2018-01-27T19:40:05.436Z,18.73
2018-01-27T19:42:32.894Z,19.08
2018-01-27T19:45:00.364Z,19.50
2018-01-27T19:47:28.591Z,18.33
2018-01-27T19:49:56.236Z,19.27
2018-01-27T19:52:23.732Z,18.15
2018-01-27T19:54:51.197Z,18.17
2018-01-27T19:57:18.738Z,18.35
2018-01-27T19:59:46.231Z,19.35
2018-01-27T20:02:14.472Z,21.37
2018-01-27T20:04:41.932Z,21.00
2018-01-27T20:07:09.484Z,19.83
2018-01-27T20:09:36.952Z,20.15
2018-01-27T20:12:05.184Z,20.00
2018-01-27T20:14:32.640Z,20.58
2018-01-27T20:17:00.108Z,19.52
2018-01-27T20:19:27.569Z,21.12
2018-01-27T20:21:55.056Z,21.05
2018-01-27T20:24:22.816Z,20.85
2018-01-27T20:26:50.271Z,20.58
2018-01-27T20:29:18.941Z,23.02
2018-01-27T20:31:46.472Z,22.42
2018-01-27T20:34:13.948Z,21.12
2018-01-27T20:36:41.437Z,21.98
2018-01-27T20:39:08.909Z,23.02
2018-01-27T20:41:37.144Z,23.05
2018-01-27T20:44:04.734Z,22.33
2018-01-27T20:46:32.955Z,22.67
2018-01-27T20:49:00.424Z,21.42
2018-01-27T20:51:27.918Z,20.98
2018-01-27T20:53:55.376Z,22.45
2018-01-27T20:56:23.040Z,22.08
2018-01-27T20:58:50.500Z,22.55
2018-01-27T21:01:18.755Z,21.65
2018-01-27T21:03:46.212Z,22.52
2018-01-27T21:06:13.667Z,22.08
2018-01-27T21:08:41.185Z,22.13
2018-01-27T21:11:08.661Z,24.10
2018-01-27T21:13:36.140Z,22.67
2018-01-27T21:16:03.604Z,24.20
2018-01-27T21:18:31.064Z,22.27
2018-01-27T21:20:58.525Z,23.98
2018-01-27T21:23:26.792Z,22.45
2018-01-27T21:25:54.265Z,25.70
2018-01-27T21:28:22.488Z,23.42
2018-01-27T21:30:50.036Z,23.83
2018-01-27T21:33:17.531Z,24.77
2018-01-27T21:35:45.102Z,23.55
2018-01-27T21:38:12.653Z,23.62
2018-01-27T21:40:40.135Z,23.08
2018-01-27T21:43:07.596Z,24.58
2018-01-27T21:45:35.856Z,22.90
2018-01-27T21:48:03.464Z,24.55
2018-01-27T21:50:30.968Z,22.42
2018-01-27T21:52:58.408Z,22.23
2018-01-27T21:55:25.878Z,26.02
2018-01-27T21:57:53.362Z,23.17
2018-01-27T22:00:21.584Z,22.80
2018-01-27T22:02:49.065Z,24.35
2018-01-27T22:05:16.524Z,21.80
2018-01-27T22:07:44.030Z,21.30
2018-01-27T22:10:11.527Z,19.25
2018-01-27T22:12:39.089Z,19.83
2018-01-27T22:15:06.544Z,20.27
2018-01-27T22:17:34.097Z,21.75
2018-01-27T22:20:01.722Z,19.00
2018-01-27T22:22:29.299Z,19.55
2018-01-27T22:24:56.760Z,19.60
2018-01-27T22:27:24.216Z,19.80
2018-01-27T22:29:51.752Z,18.87
2018-01-27T22:32:19.354Z,20.12
2018-01-27T22:34:46.816Z,20.10
2018-01-27T22:37:14.283Z,19.30
2018-01-27T22:39:41.743Z,20.37
2018-01-27T22:42:10.058Z,19.77
2018-01-27T22:44:37.561Z,19.95
2018-01-27T22:47:05.124Z,19.83
2018-01-27T22:49:32.587Z,18.00
2018-01-27T22:52:00.111Z,18.25
2018-01-27T22:54:28.291Z,16.87
2018-01-27T22:56:55.748Z,16.50
2018-01-27T22:59:23.212Z,18.85
2018-01-27T23:01:50.671Z,18.67
2018-01-27T23:04:18.253Z,19.02
2018-01-27T23:06:45.788Z,17.37
2018-01-27T23:09:13.250Z,16.15
2018-01-27T23:11:40.703Z,16.05
2018-01-27T23:14:08.163Z,19.30
2018-01-27T23:16:35.719Z,17.98
2018-01-27T23:19:03.305Z,15.60
2018-01-27T23:21:31.678Z,18.02
2018-01-27T23:23:59.896Z,17.60
2018-01-27T23:26:27.386Z,16.17
2018-01-27T23:28:54.858Z,15.88
2018-01-27T23:31:22.323Z,15.02
2018-01-27T23:33:49.843Z,14.65
2018-01-27T23:36:17.329Z,14.00
2018-01-27T23:38:44.771Z,13.50
2018-01-27T23:41:12.331Z,14.20
2018-01-27T23:43:39.790Z,15.43
2018-01-27T23:46:07.344Z,13.65
2018-01-27T23:48:34.912Z,12.43
2018-01-27T23:51:02.472Z,12.52
2018-01-27T23:53:30.703Z,11.73
2018-01-27T23:55:58.202Z,12.05
2018-01-27T23:58:26.436Z,11.00
